createdAt,value
2018-05-31T00:01:36.631Z,209.07
2018-05-31T00:04:04.115Z,261.30
2018-05-31T00:06:31.597Z,252.23
2018-05-31T00:08:59.834Z,214.10
2018-05-31T00:11:27.313Z,275.67
2018-05-31T00:13:54.798Z,287.80
2018-05-31T00:16:22.279Z,244.73
2018-05-31T00:18:49.749Z,273.17
2018-05-31T00:21:17.240Z,287.83
2018-05-31T00:23:44.699Z,307.77
2018-05-31T00:26:12.173Z,231.87
2018-05-31T00:28:40.421Z,256.30
2018-05-31T00:31:07.905Z,238.97
2018-05-31T00:33:36.132Z,261.67
2018-05-31T00:36:03.606Z,290.87
2018-05-31T00:38:31.085Z,289.00
2018-05-31T00:40:59.312Z,288.47
2018-05-31T00:43:26.796Z,297.93
2018-05-31T00:45:54.260Z,286.17
2018-05-31T00:48:21.736Z,274.77
2018-05-31T00:50:49.967Z,221.77
2018-05-31T00:53:17.449Z,256.63
2018-05-31T00:55:56.742Z,218.10
2018-05-31T00:58:24.228Z,235.13
2018-05-31T01:00:51.691Z,229.93
2018-05-31T01:03:19.172Z,292.63
2018-05-31T01:05:47.404Z,222.60
2018-05-31T01:08:14.880Z,234.20
2018-05-31T01:10:42.352Z,249.23
2018-05-31T01:13:10.597Z,219.93
2018-05-31T01:15:38.057Z,290.90
2018-05-31T01:18:06.290Z,213.90
2018-05-31T01:20:33.759Z,225.33
2018-05-31T01:23:01.229Z,287.40
2018-05-31T01:25:28.700Z,200.30
2018-05-31T01:27:56.172Z,218.10
2018-05-31T01:30:23.645Z,293.47
2018-05-31T01:32:51.887Z,199.43
2018-05-31T01:35:19.356Z,224.37
2018-05-31T01:37:47.729Z,324.00
2018-05-31T01:40:15.202Z,190.10
2018-05-31T01:42:42.669Z,230.10
2018-05-31T01:45:10.917Z,264.77
2018-05-31T01:47:38.385Z,221.90
2018-05-31T01:50:05.869Z,234.43
2018-05-31T01:52:34.100Z,223.10
2018-05-31T01:55:01.577Z,308.20
2018-05-31T01:57:29.075Z,309.30
2018-05-31T01:59:56.551Z,280.33
2018-05-31T02:02:24.028Z,231.97
2018-05-31T02:04:51.496Z,277.10
2018-05-31T02:07:18.984Z,246.43
2018-05-31T02:09:47.232Z,251.70
2018-05-31T02:12:14.696Z,340.13
2018-05-31T02:14:42.171Z,270.97
2018-05-31T02:17:10.407Z,305.47
2018-05-31T02:19:37.880Z,308.57
2018-05-31T02:22:05.352Z,287.67
2018-05-31T02:24:33.595Z,403.27
2018-05-31T02:27:01.076Z,465.77
2018-05-31T02:29:28.551Z,228.90
2018-05-31T02:31:56.788Z,341.27
2018-05-31T02:34:24.260Z,365.73
2018-05-31T02:36:51.733Z,256.83
2018-05-31T02:39:19.963Z,262.40
2018-05-31T02:41:47.444Z,234.30
2018-05-31T02:44:14.909Z,316.23
2018-05-31T02:46:42.377Z,309.77
2018-05-31T02:49:10.620Z,293.60
2018-05-31T02:51:38.097Z,364.63
2018-05-31T02:54:05.561Z,295.37
2018-05-31T02:56:33.804Z,378.47
2018-05-31T02:59:01.267Z,370.57
2018-05-31T03:01:28.740Z,364.10
2018-05-31T03:03:56.224Z,211.10
2018-05-31T03:06:23.692Z,323.03
2018-05-31T03:08:51.924Z,284.17
2018-05-31T03:11:19.395Z,324.00
2018-05-31T03:13:46.859Z,266.10
2018-05-31T03:16:15.101Z,355.17
2018-05-31T03:18:42.564Z,288.83
2018-05-31T03:21:10.040Z,272.33
2018-05-31T03:23:38.278Z,339.00
2018-05-31T03:26:05.733Z,248.37
2018-05-31T03:28:33.218Z,274.63
2018-05-31T03:31:00.680Z,283.63
2018-05-31T03:33:28.152Z,309.60
2018-05-31T03:35:56.396Z,352.23
2018-05-31T03:38:23.872Z,262.90
2018-05-31T03:40:51.336Z,263.33
2018-05-31T03:43:19.581Z,253.63
2018-05-31T03:45:47.069Z,348.73
2018-05-31T03:48:15.340Z,255.10
2018-05-31T03:50:43.587Z,416.50
2018-05-31T03:53:11.078Z,324.77
2018-05-31T03:55:39.323Z,259.17
2018-05-31T03:58:06.788Z,259.20
2018-05-31T04:00:34.274Z,356.53
2018-05-31T04:03:02.504Z,282.90
2018-05-31T04:05:29.985Z,311.67
2018-05-31T04:07:57.448Z,375.23
2018-05-31T04:10:25.688Z,303.43
2018-05-31T04:12:53.152Z,317.13
2018-05-31T04:15:20.681Z,302.17
2018-05-31T04:17:48.149Z,354.50
2018-05-31T04:20:15.680Z,319.37
2018-05-31T04:22:43.161Z,316.30
2018-05-31T04:25:10.625Z,292.07
2018-05-31T04:27:38.104Z,302.97
2018-05-31T04:30:05.569Z,301.93
2018-05-31T04:32:33.043Z,286.70
2018-05-31T04:35:01.279Z,256.63
2018-05-31T04:37:28.819Z,260.60
2018-05-31T04:39:56.287Z,266.77
2018-05-31T04:42:23.767Z,268.83
2018-05-31T04:44:51.223Z,255.17
2018-05-31T04:47:18.749Z,271.20
2018-05-31T04:49:46.214Z,200.37
2018-05-31T04:52:13.675Z,242.13
2018-05-31T04:54:41.961Z,264.93
2018-05-31T04:57:09.500Z,220.37
2018-05-31T04:59:36.974Z,207.07
2018-05-31T05:02:04.448Z,223.73
2018-05-31T05:04:31.918Z,207.07
2018-05-31T05:06:59.460Z,204.50
2018-05-31T05:09:26.929Z,186.73
2018-05-31T05:11:54.404Z,218.70
2018-05-31T05:14:22.636Z,202.77
2018-05-31T05:16:50.117Z,167.77
2018-05-31T05:19:17.588Z,179.30
2018-05-31T05:21:45.830Z,208.03
2018-05-31T05:24:13.304Z,196.63
2018-05-31T05:26:40.772Z,171.13
2018-05-31T05:29:09.025Z,170.17
2018-05-31T05:31:36.488Z,177.10
2018-05-31T05:34:03.958Z,166.97
2018-05-31T05:36:32.203Z,168.37
2018-05-31T05:38:59.664Z,176.73
2018-05-31T05:41:27.135Z,173.97
2018-05-31T05:43:54.618Z,159.53
2018-05-31T05:46:22.857Z,160.27
2018-05-31T05:48:50.340Z,161.30
2018-05-31T05:51:18.596Z,147.60
2018-05-31T05:53:46.072Z,165.43
2018-05-31T05:56:14.324Z,145.83
2018-05-31T05:58:41.792Z,149.40
2018-05-31T06:01:09.273Z,147.00
2018-05-31T06:03:37.509Z,164.57
2018-05-31T06:06:04.990Z,183.27
2018-05-31T06:08:32.460Z,171.13
2018-05-31T06:11:00.705Z,178.10
2018-05-31T06:13:28.192Z,144.57
2018-05-31T06:15:56.440Z,163.27
2018-05-31T06:18:23.933Z,136.93
2018-05-31T06:20:51.401Z,129.40
2018-05-31T06:23:18.883Z,133.23
2018-05-31T06:25:46.361Z,144.80
2018-05-31T06:28:13.824Z,139.00
2018-05-31T06:30:41.298Z,123.17
2018-05-31T06:33:09.541Z,120.77
2018-05-31T06:35:37.017Z,120.23
2018-05-31T06:38:04.484Z,126.03
2018-05-31T06:40:31.944Z,108.70
2018-05-31T06:43:00.207Z,113.40
2018-05-31T06:45:27.652Z,106.00
2018-05-31T06:47:55.105Z,105.53
2018-05-31T06:50:22.571Z,110.73
2018-05-31T06:52:50.807Z,109.03
2018-05-31T06:55:18.305Z,106.23
2018-05-31T06:57:45.760Z,102.30
2018-05-31T07:00:13.996Z,100.77
2018-05-31T07:02:41.496Z,96.20
2018-05-31T07:05:08.960Z,108.40
2018-05-31T07:07:37.200Z,101.57
2018-05-31T07:10:04.664Z,98.03
2018-05-31T07:12:32.127Z,98.33
2018-05-31T07:14:59.601Z,87.00
2018-05-31T07:17:27.052Z,96.40
2018-05-31T07:19:54.516Z,91.60
2018-05-31T07:22:21.976Z,97.53
2018-05-31T07:24:49.442Z,90.23
2018-05-31T07:27:17.689Z,95.20
2018-05-31T07:29:45.146Z,90.57
2018-05-31T07:32:12.612Z,88.67
2018-05-31T07:34:40.085Z,88.43
2018-05-31T07:37:08.305Z,89.70
2018-05-31T07:39:35.769Z,87.27
2018-05-31T07:42:03.240Z,80.17
2018-05-31T07:44:30.701Z,108.17
2018-05-31T07:46:58.165Z,102.00
2018-05-31T07:49:26.444Z,96.60
2018-05-31T07:51:55.413Z,96.60
2018-05-31T07:54:22.884Z,100.07
2018-05-31T07:56:50.512Z,85.70
2018-05-31T07:59:17.984Z,84.40
2018-05-31T08:01:45.461Z,88.83
2018-05-31T08:04:12.929Z,82.73
2018-05-31T08:06:40.381Z,73.23
2018-05-31T08:09:07.859Z,65.00
2018-05-31T08:11:36.076Z,63.63
2018-05-31T08:14:03.557Z,65.00
2018-05-31T08:16:31.025Z,67.57
2018-05-31T08:18:58.485Z,69.83
2018-05-31T08:21:25.959Z,67.50
2018-05-31T08:23:54.186Z,67.27
2018-05-31T08:26:21.654Z,65.43
2018-05-31T08:28:49.120Z,62.27
2018-05-31T08:31:16.589Z,64.73
2018-05-31T08:33:44.057Z,68.50
2018-05-31T08:36:11.560Z,69.67
2018-05-31T08:38:39.049Z,77.03
2018-05-31T08:41:06.521Z,71.87
2018-05-31T08:43:33.989Z,72.43
2018-05-31T08:46:02.238Z,70.90
2018-05-31T08:48:29.694Z,77.57
2018-05-31T08:50:57.167Z,79.30
2018-05-31T08:53:24.628Z,76.53
2018-05-31T08:55:52.080Z,87.33
2018-05-31T08:58:20.456Z,97.33
2018-05-31T09:00:47.937Z,110.90
2018-05-31T09:03:16.171Z,101.23
2018-05-31T09:05:43.645Z,104.97
2018-05-31T09:08:11.117Z,110.10
2018-05-31T09:10:39.567Z,123.53
2018-05-31T09:13:07.035Z,138.53
2018-05-31T09:15:34.492Z,146.57
2018-05-31T09:18:02.732Z,102.80
2018-05-31T09:20:30.187Z,53.97
2018-05-31T09:22:57.659Z,64.23
2018-05-31T09:25:25.121Z,69.57
2018-05-31T09:27:52.577Z,62.67
2018-05-31T09:30:20.045Z,49.20
2018-05-31T09:32:47.501Z,29.53
2018-05-31T09:35:14.969Z,19.63
2018-05-31T09:37:42.446Z,19.83
2018-05-31T09:40:10.671Z,21.10
2018-05-31T09:42:38.133Z,22.57
2018-05-31T09:45:05.596Z,20.73
2018-05-31T09:47:33.057Z,17.73
2018-05-31T09:50:00.532Z,22.97
2018-05-31T09:52:28.758Z,21.83
2018-05-31T09:54:56.217Z,25.57
2018-05-31T09:57:23.696Z,34.73
2018-05-31T09:59:51.157Z,22.93
2018-05-31T10:02:18.612Z,31.83
2018-05-31T10:04:46.082Z,21.40
2018-05-31T10:07:13.542Z,14.53
2018-05-31T10:09:41.016Z,14.77
2018-05-31T10:12:09.248Z,14.50
2018-05-31T10:14:36.704Z,10.03
2018-05-31T10:17:04.174Z,9.67
2018-05-31T10:19:32.392Z,9.20
2018-05-31T10:21:59.850Z,9.63
2018-05-31T10:24:28.316Z,13.30
2018-05-31T10:26:56.544Z,14.20
2018-05-31T10:29:24.009Z,13.00
2018-05-31T10:31:51.473Z,15.73
2018-05-31T10:34:19.017Z,14.53
2018-05-31T10:36:46.460Z,12.53
2018-05-31T10:39:13.924Z,15.30
2018-05-31T10:41:41.391Z,15.00
2018-05-31T10:44:08.849Z,12.47
2018-05-31T10:46:36.337Z,12.47
2018-05-31T10:49:03.800Z,12.03
2018-05-31T10:51:32.020Z,12.93
2018-05-31T10:53:59.489Z,12.70
2018-05-31T10:56:26.949Z,13.13
2018-05-31T10:58:54.424Z,12.30
2018-05-31T11:01:21.876Z,10.20
2018-05-31T11:03:49.340Z,8.87
2018-05-31T11:06:16.808Z,10.77
2018-05-31T11:08:44.352Z,7.93
2018-05-31T11:11:11.763Z,11.53
2018-05-31T11:13:39.221Z,15.33
2018-05-31T11:16:06.701Z,13.53
2018-05-31T11:18:34.154Z,11.53
2018-05-31T11:21:01.613Z,9.40
2018-05-31T11:23:29.076Z,11.57
2018-05-31T11:25:56.556Z,12.77
2018-05-31T11:28:24.028Z,10.50
2018-05-31T11:30:52.257Z,22.43
2018-05-31T11:33:19.709Z,18.53
2018-05-31T11:35:47.176Z,8.73
2018-05-31T11:38:14.632Z,13.37
2018-05-31T11:40:42.096Z,14.53
2018-05-31T11:43:09.565Z,11.47
2018-05-31T11:45:37.024Z,17.43
2018-05-31T11:48:04.486Z,12.40
2018-05-31T11:50:31.940Z,8.93
2018-05-31T11:52:59.391Z,10.00
2018-05-31T11:55:26.860Z,9.13
2018-05-31T11:57:54.332Z,10.70
2018-05-31T12:00:22.561Z,14.13
2018-05-31T12:02:50.025Z,6.80
2018-05-31T12:05:17.476Z,10.13
2018-05-31T12:07:44.932Z,10.90
2018-05-31T12:10:12.404Z,6.20
2018-05-31T12:12:39.872Z,5.73
2018-05-31T12:15:07.337Z,6.33
2018-05-31T12:17:35.591Z,5.10
2018-05-31T12:22:37.020Z,9.50
2018-05-31T12:25:04.495Z,6.13
2018-05-31T12:27:31.976Z,7.13
2018-05-31T12:29:59.417Z,9.10
2018-05-31T12:32:26.864Z,6.80
2018-05-31T12:34:54.320Z,7.73
2018-05-31T12:37:21.803Z,15.37
2018-05-31T12:39:49.255Z,5.00
2018-05-31T12:42:16.711Z,8.73
2018-05-31T12:44:44.167Z,9.13
2018-05-31T12:47:11.625Z,14.17
2018-05-31T12:49:39.096Z,9.87
2018-05-31T12:52:06.547Z,9.93
2018-05-31T12:54:34.004Z,12.77
2018-05-31T12:57:01.492Z,9.90
2018-05-31T12:59:28.949Z,10.13
2018-05-31T13:01:56.412Z,9.20
2018-05-31T13:04:23.864Z,5.20
2018-05-31T13:06:51.340Z,6.50
2018-05-31T13:09:18.797Z,7.73
2018-05-31T13:11:46.253Z,8.10
2018-05-31T13:14:13.724Z,5.13
2018-05-31T13:16:41.235Z,6.13
2018-05-31T13:19:09.459Z,9.23
2018-05-31T13:21:36.921Z,7.10
2018-05-31T13:24:04.377Z,6.20
2018-05-31T13:26:31.831Z,8.10
2018-05-31T13:28:59.295Z,7.10
2018-05-31T13:31:26.745Z,6.63
2018-05-31T13:33:54.215Z,9.23
2018-05-31T13:36:21.677Z,7.80
2018-05-31T13:38:49.152Z,7.83
2018-05-31T13:41:17.398Z,8.87
2018-05-31T13:43:44.856Z,8.90
2018-05-31T13:46:12.323Z,9.20
2018-05-31T13:48:39.804Z,10.57
2018-05-31T13:51:07.245Z,5.73
2018-05-31T13:53:34.700Z,10.13
2018-05-31T13:56:02.168Z,10.30
2018-05-31T13:58:29.631Z,7.07
2018-05-31T14:00:57.841Z,3.87
2018-05-31T14:03:25.297Z,5.97
2018-05-31T14:05:52.764Z,5.97
2018-05-31T14:08:20.221Z,6.30
2018-05-31T14:10:47.684Z,8.63
2018-05-31T14:13:15.137Z,8.40
2018-05-31T14:15:42.593Z,6.53
2018-05-31T14:18:10.056Z,6.20
2018-05-31T14:20:37.524Z,8.20
2018-05-31T14:23:04.992Z,6.70
2018-05-31T14:25:32.445Z,7.63
2018-05-31T14:27:59.908Z,14.63
2018-05-31T14:30:27.385Z,7.03
2018-05-31T14:32:55.600Z,8.60
2018-05-31T14:35:23.085Z,5.30
2018-05-31T14:37:50.540Z,6.40
2018-05-31T14:40:18.012Z,5.43
2018-05-31T14:42:45.477Z,5.67
2018-05-31T14:45:13.700Z,6.40
2018-05-31T14:47:41.162Z,11.53
2018-05-31T14:50:08.632Z,6.17
2018-05-31T14:52:36.084Z,5.40
2018-05-31T14:55:03.564Z,7.67
2018-05-31T14:57:31.021Z,7.77
2018-05-31T14:59:58.480Z,10.80
2018-05-31T15:02:25.945Z,7.33
2018-05-31T15:04:53.398Z,6.27
2018-05-31T15:07:20.853Z,8.30
2018-05-31T15:09:48.328Z,9.00
2018-05-31T15:12:16.565Z,8.37
2018-05-31T15:14:44.025Z,8.87
2018-05-31T15:17:11.481Z,11.23
2018-05-31T15:19:38.945Z,8.57
2018-05-31T15:22:06.425Z,8.47
2018-05-31T15:24:34.642Z,8.40
2018-05-31T15:27:02.128Z,11.13
2018-05-31T15:29:29.585Z,9.00
2018-05-31T15:31:57.038Z,6.90
2018-05-31T15:34:24.492Z,7.47
2018-05-31T15:36:51.957Z,6.47
2018-05-31T15:39:19.415Z,5.60
2018-05-31T15:41:46.884Z,6.87
2018-05-31T15:44:14.344Z,8.10
2018-05-31T15:46:41.851Z,6.70
2018-05-31T15:49:10.230Z,9.53
2018-05-31T15:51:37.684Z,10.63
2018-05-31T15:54:05.146Z,7.90
2018-05-31T15:56:32.630Z,5.53
2018-05-31T15:59:00.093Z,9.57
2018-05-31T16:01:27.570Z,9.67
2018-05-31T16:03:55.804Z,6.70
2018-05-31T16:06:24.268Z,5.57
2018-05-31T16:08:51.745Z,5.50
2018-05-31T16:11:19.205Z,9.50
2018-05-31T16:13:46.688Z,7.03
2018-05-31T16:16:14.139Z,8.07
2018-05-31T16:18:41.597Z,9.83
2018-05-31T16:21:09.044Z,6.63
2018-05-31T16:23:36.528Z,8.93
2018-05-31T16:26:04.751Z,7.23
2018-05-31T16:28:32.273Z,8.13
2018-05-31T16:30:59.712Z,12.70
2018-05-31T16:33:27.935Z,23.00
2018-05-31T16:35:55.411Z,17.80
2018-05-31T16:38:22.869Z,22.03
2018-05-31T16:40:50.372Z,21.03
2018-05-31T16:43:17.866Z,22.50
2018-05-31T16:45:45.321Z,19.23
2018-05-31T16:48:12.777Z,17.90
2018-05-31T16:50:40.248Z,15.93
2018-05-31T16:53:07.764Z,20.90
2018-05-31T16:55:35.245Z,18.47
2018-05-31T16:58:02.701Z,19.17
2018-05-31T17:00:30.207Z,15.90
2018-05-31T17:02:57.640Z,13.50
2018-05-31T17:05:25.109Z,14.93
2018-05-31T17:07:52.573Z,21.03
2018-05-31T17:10:20.116Z,10.10
2018-05-31T17:12:47.620Z,16.70
2018-05-31T17:15:16.101Z,14.40
2018-05-31T17:17:43.579Z,10.70
2018-05-31T17:20:11.056Z,12.30
2018-05-31T17:22:38.521Z,19.40
2018-05-31T17:25:05.997Z,10.03
2018-05-31T17:27:33.457Z,9.37
2018-05-31T17:30:00.933Z,8.33
2018-05-31T17:32:29.170Z,8.70
2018-05-31T17:34:56.617Z,9.70
2018-05-31T17:37:24.093Z,6.30
2018-05-31T17:39:51.548Z,6.47
2018-05-31T17:42:19.006Z,12.57
2018-05-31T17:44:46.472Z,12.00
2018-05-31T17:47:13.924Z,10.50
2018-05-31T17:49:41.401Z,8.37
2018-05-31T17:52:09.632Z,5.60
2018-05-31T17:54:37.105Z,5.87
2018-05-31T17:57:04.584Z,8.50
2018-05-31T17:59:32.808Z,13.63
2018-05-31T18:02:00.273Z,8.20
2018-05-31T18:04:27.733Z,7.40
2018-05-31T18:06:55.200Z,9.53
2018-05-31T18:09:22.668Z,8.70
2018-05-31T18:11:50.129Z,12.17
2018-05-31T18:14:17.620Z,6.50
2018-05-31T18:16:45.067Z,11.33
2018-05-31T18:19:13.288Z,9.30
2018-05-31T18:21:40.752Z,7.20
2018-05-31T18:24:08.221Z,9.87
2018-05-31T18:26:35.722Z,9.90
2018-05-31T18:29:03.198Z,8.80
2018-05-31T18:31:30.660Z,9.00
2018-05-31T18:33:58.952Z,9.83
2018-05-31T18:36:26.411Z,9.50
2018-05-31T18:38:53.892Z,9.93
2018-05-31T18:41:21.353Z,9.40
2018-05-31T18:43:48.808Z,10.50
2018-05-31T18:46:17.043Z,12.80
2018-05-31T18:48:44.537Z,11.23
2018-05-31T18:51:26.854Z,9.40
2018-05-31T18:53:55.101Z,12.93
2018-05-31T18:56:22.589Z,10.70
2018-05-31T18:58:50.816Z,14.53
2018-05-31T19:01:18.296Z,11.07
2018-05-31T19:03:45.757Z,12.30
2018-05-31T19:06:13.233Z,8.70
2018-05-31T19:08:41.485Z,10.20
2018-05-31T19:11:08.953Z,10.60
2018-05-31T19:13:42.204Z,18.10
2018-05-31T19:16:09.664Z,17.23
2018-05-31T19:18:42.833Z,12.10
2018-05-31T19:21:10.296Z,15.47
2018-05-31T19:23:37.778Z,9.40
2018-05-31T19:26:05.256Z,13.13
2018-05-31T19:28:32.721Z,11.90
2018-05-31T19:31:05.818Z,14.23
2018-05-31T19:33:34.037Z,11.93
2018-05-31T19:36:07.315Z,16.70
2018-05-31T19:38:34.785Z,15.30
2018-05-31T19:41:02.241Z,14.10
2018-05-31T19:43:35.463Z,11.97
2018-05-31T19:46:02.936Z,19.00
2018-05-31T19:48:30.397Z,17.10
2018-05-31T19:50:57.909Z,14.17
2018-05-31T19:53:30.993Z,18.57
2018-05-31T19:55:58.468Z,14.53
2018-05-31T19:58:31.676Z,14.37
2018-05-31T20:01:04.848Z,21.90
2018-05-31T20:03:34.890Z,23.17
2018-05-31T20:06:02.356Z,22.53
2018-05-31T20:08:29.820Z,16.43
2018-05-31T20:10:58.064Z,18.73
2018-05-31T20:13:25.533Z,17.97
2018-05-31T20:15:53.004Z,18.03
2018-05-31T20:18:21.237Z,22.23
2018-05-31T20:20:48.735Z,17.57
2018-05-31T20:23:16.177Z,23.37
2018-05-31T20:25:43.645Z,24.50
2018-05-31T20:28:11.147Z,25.23
2018-05-31T20:30:38.614Z,18.60
2018-05-31T20:33:06.076Z,23.67
2018-05-31T20:35:33.552Z,28.17
2018-05-31T20:38:01.022Z,22.60
2018-05-31T20:40:28.492Z,23.00
2018-05-31T20:42:55.946Z,25.63
2018-05-31T20:45:23.422Z,23.50
2018-05-31T20:47:51.652Z,23.13
2018-05-31T20:50:19.120Z,25.17
2018-05-31T20:52:46.577Z,21.37
2018-05-31T20:55:14.044Z,28.97
2018-05-31T20:57:41.533Z,31.00
2018-05-31T21:00:09.000Z,25.13
2018-05-31T21:02:36.452Z,25.10
2018-05-31T21:05:03.932Z,28.80
2018-05-31T21:07:31.391Z,25.50
2018-05-31T21:09:58.871Z,26.23
2018-05-31T21:12:26.340Z,31.07
2018-05-31T21:14:53.807Z,29.73
2018-05-31T21:17:22.053Z,37.87
2018-05-31T21:19:49.515Z,26.23
2018-05-31T21:22:16.992Z,40.07
2018-05-31T21:24:44.492Z,30.70
2018-05-31T21:27:11.944Z,32.77
2018-05-31T21:29:39.401Z,31.97
2018-05-31T21:32:06.877Z,40.07
2018-05-31T21:34:34.333Z,36.57
2018-05-31T21:37:01.799Z,32.70
2018-05-31T21:39:30.058Z,31.47
2018-05-31T21:41:57.522Z,33.70
2018-05-31T21:44:25.000Z,38.10
2018-05-31T21:46:52.463Z,36.43
2018-05-31T21:49:19.929Z,28.80
2018-05-31T21:51:47.390Z,31.90
2018-05-31T21:54:14.847Z,37.50
2018-05-31T21:56:42.316Z,30.53
2018-05-31T21:59:10.561Z,38.93
2018-05-31T22:01:38.040Z,38.93
2018-05-31T22:04:06.274Z,41.33
2018-05-31T22:06:33.749Z,39.80
2018-05-31T22:09:01.207Z,37.83
2018-05-31T22:11:28.727Z,36.13
2018-05-31T22:13:56.929Z,40.90
2018-05-31T22:16:24.393Z,42.37
2018-05-31T22:18:51.871Z,39.20
2018-05-31T22:21:19.349Z,40.37
2018-05-31T22:23:47.580Z,44.33
2018-05-31T22:26:15.045Z,41.67
2018-05-31T22:28:42.526Z,44.30
2018-05-31T22:31:10.745Z,42.23
2018-05-31T22:33:38.217Z,48.53
2018-05-31T22:36:05.688Z,50.77
2018-05-31T22:38:33.150Z,46.63
2018-05-31T22:41:00.628Z,38.53
2018-05-31T22:43:28.891Z,47.33
2018-05-31T22:45:56.398Z,41.77
2018-05-31T22:48:23.817Z,47.43
2018-05-31T22:50:52.056Z,44.73
2018-05-31T22:53:19.524Z,45.03
2018-05-31T22:55:47.001Z,45.50
2018-05-31T22:58:14.457Z,47.10
2018-05-31T23:00:42.701Z,45.10
2018-05-31T23:03:10.160Z,41.30
2018-05-31T23:05:37.633Z,38.67
2018-05-31T23:08:05.106Z,42.40
2018-05-31T23:10:33.339Z,42.93
2018-05-31T23:13:00.808Z,48.40
2018-05-31T23:15:28.269Z,48.53
2018-05-31T23:17:55.729Z,40.03
2018-05-31T23:20:23.351Z,40.53
2018-05-31T23:22:50.803Z,47.53
2018-05-31T23:25:18.377Z,38.13
2018-05-31T23:27:45.851Z,44.17
2018-05-31T23:30:13.316Z,47.20
2018-05-31T23:32:40.798Z,39.13
2018-05-31T23:35:09.023Z,46.73
2018-05-31T23:37:36.496Z,45.53
2018-05-31T23:40:03.954Z,41.87
2018-05-31T23:42:31.430Z,53.50
2018-05-31T23:44:58.907Z,50.93
2018-05-31T23:47:27.128Z,49.00
2018-05-31T23:49:54.600Z,50.43
2018-05-31T23:52:22.069Z,42.37
2018-05-31T23:54:49.532Z,47.57
2018-05-31T23:57:16.991Z,48.63
2018-05-31T23:59:44.452Z,47.83
